sensor_id;sensor_type;location;lat;lon;timestamp;pressure;altitude;pressure_sealevel;temperature;humidity
62634;BME280;48704;50.534;6.442;2023-07-29T00:00:46;94880.28;;;16.61;100.00
62634;BME280;48704;50.534;6.442;2023-07-29T00:03:11;94894.59;;;16.63;100.00
62634;BME280;48704;50.534;6.442;2023-07-29T00:05:37;94888.72;;;16.61;100.00
62634;BME280;48704;50.534;6.442;2023-07-29T00:08:03;94878.50;;;16.64;100.00
62634;BME280;48704;50.534;6.442;2023-07-29T00:10:28;94870.88;;;16.59;100.00
62634;BME280;48704;50.534;6.442;2023-07-29T00:12:53;94872.41;;;16.60;100.00
62634;BME280;48704;50.534;6.442;2023-07-29T00:15:19;94861.69;;;16.58;100.00
62634;BME280;48704;50.534;6.442;2023-07-29T00:17:44;94863.41;;;16.61;100.00
62634;BME280;48704;50.534;6.442;2023-07-29T00:20:09;94867.06;;;16.56;100.00
62634;BME280;48704;50.534;6.442;2023-07-29T00:22:35;94859.69;;;16.53;100.00
62634;BME280;48704;50.534;6.442;2023-07-29T00:25:00;94859.63;;;16.59;100.00
62634;BME280;48704;50.534;6.442;2023-07-29T00:27:26;94862.22;;;16.57;100.00
62634;BME280;48704;50.534;6.442;2023-07-29T00:29:51;94864.66;;;16.47;100.00
62634;BME280;48704;50.534;6.442;2023-07-29T00:32:17;94860.53;;;16.48;100.00
62634;BME280;48704;50.534;6.442;2023-07-29T00:34:43;94868.75;;;16.46;100.00
62634;BME280;48704;50.534;6.442;2023-07-29T00:37:08;94869.22;;;16.50;100.00
62634;BME280;48704;50.534;6.442;2023-07-29T00:39:33;94870.72;;;16.51;100.00
62634;BME280;48704;50.534;6.442;2023-07-29T00:41:59;94862.06;;;16.49;100.00
62634;BME280;48704;50.534;6.442;2023-07-29T00:44:24;94863.13;;;16.46;100.00
62634;BME280;48704;50.534;6.442;2023-07-29T00:46:52;94861.91;;;16.60;100.00
62634;BME280;48704;50.534;6.442;2023-07-29T00:49:18;94849.59;;;16.63;100.00
62634;BME280;48704;50.534;6.442;2023-07-29T00:51:44;94848.31;;;16.64;100.00
62634;BME280;48704;50.534;6.442;2023-07-29T00:54:09;94845.03;;;16.60;100.00
62634;BME280;48704;50.534;6.442;2023-07-29T00:56:35;94844.25;;;16.60;100.00
62634;BME280;48704;50.534;6.442;2023-07-29T00:59:01;94838.31;;;16.63;100.00
62634;BME280;48704;50.534;6.442;2023-07-29T01:01:28;94844.75;;;16.64;100.00
62634;BME280;48704;50.534;6.442;2023-07-29T01:03:53;94833.78;;;16.60;100.00
62634;BME280;48704;50.534;6.442;2023-07-29T01:06:37;94834.00;;;16.62;100.00
62634;BME280;48704;50.534;6.442;2023-07-29T01:09:30;94842.00;;;16.58;100.00
62634;BME280;48704;50.534;6.442;2023-07-29T01:14:47;94837.72;;;16.70;100.00
62634;BME280;48704;50.534;6.442;2023-07-29T01:17:22;94833.19;;;16.67;100.00
62634;BME280;48704;50.534;6.442;2023-07-29T01:20:08;94829.50;;;16.73;100.00
62634;BME280;48704;50.534;6.442;2023-07-29T01:22:35;94837.28;;;16.66;100.00
62634;BME280;48704;50.534;6.442;2023-07-29T01:25:02;94835.50;;;16.63;100.00
62634;BME280;48704;50.534;6.442;2023-07-29T01:27:27;94836.22;;;16.69;100.00
62634;BME280;48704;50.534;6.442;2023-07-29T01:29:54;94829.88;;;16.63;100.00
62634;BME280;48704;50.534;6.442;2023-07-29T01:32:28;94827.34;;;16.65;100.00
62634;BME280;48704;50.534;6.442;2023-07-29T01:35:01;94825.56;;;16.62;100.00
62634;BME280;48704;50.534;6.442;2023-07-29T01:37:30;94833.19;;;16.67;100.00
62634;BME280;48704;50.534;6.442;2023-07-29T01:39:59;94836.63;;;16.74;100.00
62634;BME280;48704;50.534;6.442;2023-07-29T01:42:25;94831.66;;;16.66;100.00
62634;BME280;48704;50.534;6.442;2023-07-29T01:44:51;94828.19;;;16.74;100.00
62634;BME280;48704;50.534;6.442;2023-07-29T01:47:16;94834.69;;;16.68;100.00
62634;BME280;48704;50.534;6.442;2023-07-29T01:49:42;94835.00;;;16.65;100.00
62634;BME280;48704;50.534;6.442;2023-07-29T01:52:07;94833.19;;;16.67;100.00
62634;BME280;48704;50.534;6.442;2023-07-29T01:54:32;94834.25;;;16.64;100.00
62634;BME280;48704;50.534;6.442;2023-07-29T01:56:57;94830.19;;;16.60;100.00
62634;BME280;48704;50.534;6.442;2023-07-29T01:59:23;94830.06;;;16.52;100.00
62634;BME280;48704;50.534;6.442;2023-07-29T02:01:48;94825.06;;;16.45;100.00
62634;BME280;48704;50.534;6.442;2023-07-29T02:04:14;94822.03;;;16.43;100.00
62634;BME280;48704;50.534;6.442;2023-07-29T02:06:39;94819.97;;;16.44;100.00
62634;BME280;48704;50.534;6.442;2023-07-29T02:09:04;94824.84;;;16.43;100.00
62634;BME280;48704;50.534;6.442;2023-07-29T02:11:30;94826.88;;;16.43;100.00
62634;BME280;48704;50.534;6.442;2023-07-29T02:13:56;94828.94;;;16.42;100.00
62634;BME280;48704;50.534;6.442;2023-07-29T02:16:22;94828.72;;;16.40;100.00
62634;BME280;48704;50.534;6.442;2023-07-29T02:18:48;94819.28;;;16.37;100.00
62634;BME280;48704;50.534;6.442;2023-07-29T02:21:14;94819.41;;;16.32;100.00
62634;BME280;48704;50.534;6.442;2023-07-29T02:23:40;94826.97;;;16.37;100.00
62634;BME280;48704;50.534;6.442;2023-07-29T02:26:05;94824.91;;;16.37;100.00
62634;BME280;48704;50.534;6.442;2023-07-29T02:28:31;94829.34;;;16.33;100.00
62634;BME280;48704;50.534;6.442;2023-07-29T02:31:12;94835.81;;;16.28;100.00
62634;BME280;48704;50.534;6.442;2023-07-29T02:33:37;94831.41;;;16.14;100.00
62634;BME280;48704;50.534;6.442;2023-07-29T02:36:02;94840.22;;;16.04;100.00
62634;BME280;48704;50.534;6.442;2023-07-29T02:38:28;94834.31;;;15.89;100.00
62634;BME280;48704;50.534;6.442;2023-07-29T02:40:53;94842.13;;;15.78;100.00
62634;BME280;48704;50.534;6.442;2023-07-29T02:43:18;94836.28;;;15.76;100.00
62634;BME280;48704;50.534;6.442;2023-07-29T02:45:43;94841.50;;;15.66;100.00
62634;BME280;48704;50.534;6.442;2023-07-29T02:48:09;94837.19;;;15.65;100.00
62634;BME280;48704;50.534;6.442;2023-07-29T02:50:34;94835.09;;;15.47;100.00
62634;BME280;48704;50.534;6.442;2023-07-29T02:52:59;94832.75;;;15.51;100.00
62634;BME280;48704;50.534;6.442;2023-07-29T02:55:26;94833.00;;;15.28;100.00
62634;BME280;48704;50.534;6.442;2023-07-29T02:57:52;94837.22;;;15.16;100.00
62634;BME280;48704;50.534;6.442;2023-07-29T03:00:17;94828.09;;;15.10;100.00
62634;BME280;48704;50.534;6.442;2023-07-29T03:02:42;94835.91;;;14.93;100.00
62634;BME280;48704;50.534;6.442;2023-07-29T03:05:08;94837.56;;;14.83;100.00
62634;BME280;48704;50.534;6.442;2023-07-29T03:07:33;94831.19;;;14.82;100.00
62634;BME280;48704;50.534;6.442;2023-07-29T03:09:59;94839.06;;;14.84;100.00
62634;BME280;48704;50.534;6.442;2023-07-29T03:12:24;94826.09;;;14.81;100.00
62634;BME280;48704;50.534;6.442;2023-07-29T03:14:49;94821.31;;;14.76;100.00
62634;BME280;48704;50.534;6.442;2023-07-29T03:17:14;94811.59;;;14.77;100.00
62634;BME280;48704;50.534;6.442;2023-07-29T03:19:40;94802.47;;;14.70;100.00
62634;BME280;48704;50.534;6.442;2023-07-29T03:22:05;94794.78;;;14.77;100.00
62634;BME280;48704;50.534;6.442;2023-07-29T03:24:30;94801.91;;;14.78;100.00
62634;BME280;48704;50.534;6.442;2023-07-29T03:26:56;94815.22;;;14.71;100.00
62634;BME280;48704;50.534;6.442;2023-07-29T03:29:21;94813.22;;;14.66;100.00
62634;BME280;48704;50.534;6.442;2023-07-29T03:31:46;94820.34;;;14.67;100.00
62634;BME280;48704;50.534;6.442;2023-07-29T03:34:11;94827.19;;;14.72;100.00
62634;BME280;48704;50.534;6.442;2023-07-29T03:36:37;94830.25;;;14.74;100.00
62634;BME280;48704;50.534;6.442;2023-07-29T03:39:03;94827.19;;;14.72;100.00
62634;BME280;48704;50.534;6.442;2023-07-29T03:41:28;94829.81;;;14.64;100.00
62634;BME280;48704;50.534;6.442;2023-07-29T03:43:54;94830.28;;;14.68;100.00
62634;BME280;48704;50.534;6.442;2023-07-29T03:46:19;94831.63;;;14.62;100.00
62634;BME280;48704;50.534;6.442;2023-07-29T03:48:47;94830.91;;;14.56;100.00
62634;BME280;48704;50.534;6.442;2023-07-29T03:51:12;94837.53;;;14.53;100.00
62634;BME280;48704;50.534;6.442;2023-07-29T03:53:37;94836.78;;;14.52;100.00
62634;BME280;48704;50.534;6.442;2023-07-29T03:56:03;94842.88;;;14.56;100.00
62634;BME280;48704;50.534;6.442;2023-07-29T03:58:28;94840.59;;;14.55;100.00
62634;BME280;48704;50.534;6.442;2023-07-29T04:00:53;94836.78;;;14.52;100.00
62634;BME280;48704;50.534;6.442;2023-07-29T04:03:19;94838.41;;;14.42;100.00
62634;BME280;48704;50.534;6.442;2023-07-29T04:05:44;94837.81;;;14.49;100.00
62634;BME280;48704;50.534;6.442;2023-07-29T04:08:09;94833.81;;;14.39;100.00
62634;BME280;48704;50.534;6.442;2023-07-29T04:10:35;94832.53;;;14.40;100.00
62634;BME280;48704;50.534;6.442;2023-07-29T04:13:00;94833.34;;;14.35;100.00
62634;BME280;48704;50.534;6.442;2023-07-29T04:15:26;94834.09;;;14.41;100.00
62634;BME280;48704;50.534;6.442;2023-07-29T04:17:51;94826.69;;;14.38;100.00
62634;BME280;48704;50.534;6.442;2023-07-29T04:20:16;94829.75;;;14.40;100.00
62634;BME280;48704;50.534;6.442;2023-07-29T04:22:42;94824.94;;;14.35;100.00
62634;BME280;48704;50.534;6.442;2023-07-29T04:25:07;94826.69;;;14.38;100.00
62634;BME280;48704;50.534;6.442;2023-07-29T04:27:32;94838.41;;;14.42;100.00
62634;BME280;48704;50.534;6.442;2023-07-29T04:29:58;94840.72;;;14.38;100.00
62634;BME280;48704;50.534;6.442;2023-07-29T04:32:23;94835.84;;;14.44;100.00
62634;BME280;48704;50.534;6.442;2023-07-29T04:34:48;94843.44;;;14.49;100.00
62634;BME280;48704;50.534;6.442;2023-07-29T04:37:14;94842.50;;;14.41;100.00
62634;BME280;48704;50.534;6.442;2023-07-29T04:39:39;94841.47;;;14.44;100.00
62634;BME280;48704;50.534;6.442;2023-07-29T04:42:05;94850.41;;;14.37;100.00
62634;BME280;48704;50.534;6.442;2023-07-29T04:44:30;94860.06;;;14.42;100.00
62634;BME280;48704;50.534;6.442;2023-07-29T04:46:55;94838.13;;;14.46;100.00
62634;BME280;48704;50.534;6.442;2023-07-29T04:49:20;94854.25;;;14.34;100.00
62634;BME280;48704;50.534;6.442;2023-07-29T04:51:46;94845.78;;;14.45;100.00
62634;BME280;48704;50.534;6.442;2023-07-29T04:54:11;94841.91;;;14.48;100.00
62634;BME280;48704;50.534;6.442;2023-07-29T04:56:36;94830.13;;;14.55;100.00
62634;BME280;48704;50.534;6.442;2023-07-29T04:59:02;94829.91;;;14.53;100.00
62634;BME280;48704;50.534;6.442;2023-07-29T05:01:27;94828.13;;;14.50;100.00
62634;BME280;48704;50.534;6.442;2023-07-29T05:03:52;94841.81;;;14.59;100.00
62634;BME280;48704;50.534;6.442;2023-07-29T05:06:18;94842.09;;;14.56;100.00
62634;BME280;48704;50.534;6.442;2023-07-29T05:08:43;94848.97;;;14.60;100.00
62634;BME280;48704;50.534;6.442;2023-07-29T05:11:08;94846.16;;;14.60;100.00
62634;BME280;48704;50.534;6.442;2023-07-29T05:13:33;94839.25;;;14.61;100.00
62634;BME280;48704;50.534;6.442;2023-07-29T05:15:59;94824.97;;;14.65;100.00
62634;BME280;48704;50.534;6.442;2023-07-29T05:18:24;94830.28;;;14.68;100.00
62634;BME280;48704;50.534;6.442;2023-07-29T05:20:49;94830.00;;;14.72;100.00
62634;BME280;48704;50.534;6.442;2023-07-29T05:23:15;94835.59;;;14.72;100.00
62634;BME280;48704;50.534;6.442;2023-07-29T05:25:40;94818.72;;;14.78;100.00
62634;BME280;48704;50.534;6.442;2023-07-29T05:28:05;94821.31;;;14.76;100.00
62634;BME280;48704;50.534;6.442;2023-07-29T05:30:32;94837.09;;;14.79;100.00
62634;BME280;48704;50.534;6.442;2023-07-29T05:32:59;94844.44;;;14.82;100.00
62634;BME280;48704;50.534;6.442;2023-07-29T05:35:24;94847.00;;;14.80;100.00
62634;BME280;48704;50.534;6.442;2023-07-29T05:37:50;94860.56;;;14.76;100.00
62634;BME280;48704;50.534;6.442;2023-07-29T05:40:15;94858.03;;;14.72;100.00
62634;BME280;48704;50.534;6.442;2023-07-29T05:42:40;94859.03;;;14.75;100.00
62634;BME280;48704;50.534;6.442;2023-07-29T05:45:06;94863.59;;;14.78;100.00
62634;BME280;48704;50.534;6.442;2023-07-29T05:47:32;94865.13;;;14.79;100.00
62634;BME280;48704;50.534;6.442;2023-07-29T05:49:57;94860.00;;;14.83;100.00
62634;BME280;48704;50.534;6.442;2023-07-29T05:52:22;94872.66;;;14.89;100.00
62634;BME280;48704;50.534;6.442;2023-07-29T05:54:48;94863.97;;;14.93;100.00
62634;BME280;48704;50.534;6.442;2023-07-29T05:57:13;94866.53;;;14.91;100.00
62634;BME280;48704;50.534;6.442;2023-07-29T05:59:38;94879.75;;;14.96;100.00
62634;BME280;48704;50.534;6.442;2023-07-29T06:02:04;94872.91;;;14.91;100.00
62634;BME280;48704;50.534;6.442;2023-07-29T06:04:30;94881.03;;;14.95;100.00
62634;BME280;48704;50.534;6.442;2023-07-29T06:06:55;94885.34;;;14.96;100.00
62634;BME280;48704;50.534;6.442;2023-07-29T06:09:22;94877.19;;;14.98;100.00
62634;BME280;48704;50.534;6.442;2023-07-29T06:11:47;94884.31;;;14.99;100.00
62634;BME280;48704;50.534;6.442;2023-07-29T06:14:12;94880.75;;;14.98;100.00
62634;BME280;48704;50.534;6.442;2023-07-29T06:16:38;94892.81;;;14.88;100.00
62634;BME280;48704;50.534;6.442;2023-07-29T06:19:03;94890.22;;;14.95;100.00
62634;BME280;48704;50.534;6.442;2023-07-29T06:21:29;94891.25;;;14.92;100.00
62634;BME280;48704;50.534;6.442;2023-07-29T06:23:54;94878.69;;;14.99;100.00
62634;BME280;48704;50.534;6.442;2023-07-29T06:26:19;94871.09;;;14.94;100.00
62634;BME280;48704;50.534;6.442;2023-07-29T06:28:45;94880.69;;;15.04;100.00
62634;BME280;48704;50.534;6.442;2023-07-29T06:31:10;94884.22;;;15.10;100.00
62634;BME280;48704;50.534;6.442;2023-07-29T06:33:35;94887.53;;;15.09;100.00
62634;BME280;48704;50.534;6.442;2023-07-29T06:36:00;94890.53;;;15.16;100.00
62634;BME280;48704;50.534;6.442;2023-07-29T06:38:26;94901.06;;;15.10;100.00
62634;BME280;48704;50.534;6.442;2023-07-29T06:40:51;94892.53;;;15.21;100.00
62634;BME280;48704;50.534;6.442;2023-07-29T06:43:17;94892.97;;;15.25;100.00
62634;BME280;48704;50.534;6.442;2023-07-29T06:45:43;94894.72;;;15.28;100.00
62634;BME280;48704;50.534;6.442;2023-07-29T06:48:08;94905.16;;;15.33;100.00
62634;BME280;48704;50.534;6.442;2023-07-29T06:50:33;94903.28;;;15.42;100.00
62634;BME280;48704;50.534;6.442;2023-07-29T06:52:59;94890.06;;;15.36;100.00
62634;BME280;48704;50.534;6.442;2023-07-29T06:55:24;94895.22;;;15.32;100.00
62634;BME280;48704;50.534;6.442;2023-07-29T06:57:49;94899.44;;;15.45;100.00
62634;BME280;48704;50.534;6.442;2023-07-29T07:00:14;94902.22;;;15.45;100.00
62634;BME280;48704;50.534;6.442;2023-07-29T07:02:40;94913.09;;;15.29;100.00
62634;BME280;48704;50.534;6.442;2023-07-29T07:05:05;94910.25;;;15.35;100.00
62634;BME280;48704;50.534;6.442;2023-07-29T07:07:31;94914.03;;;15.37;100.00
62634;BME280;48704;50.534;6.442;2023-07-29T07:09:56;94904.81;;;15.43;100.00
62634;BME280;48704;50.534;6.442;2023-07-29T07:12:22;94906.31;;;15.44;100.00
62634;BME280;48704;50.534;6.442;2023-07-29T07:14:47;94901.19;;;15.48;100.00
62634;BME280;48704;50.534;6.442;2023-07-29T07:17:13;94889.66;;;15.51;100.00
62634;BME280;48704;50.534;6.442;2023-07-29T07:19:38;94897.78;;;15.55;100.00
62634;BME280;48704;50.534;6.442;2023-07-29T07:22:03;94905.03;;;15.69;100.00
62634;BME280;48704;50.534;6.442;2023-07-29T07:24:29;94910.66;;;15.69;100.00
62634;BME280;48704;50.534;6.442;2023-07-29T07:26:54;94925.22;;;15.67;100.00
62634;BME280;48704;50.534;6.442;2023-07-29T07:29:20;94906.09;;;15.66;100.00
62634;BME280;48704;50.534;6.442;2023-07-29T07:31:50;94913.69;;;15.71;100.00
62634;BME280;48704;50.534;6.442;2023-07-29T07:34:17;94913.13;;;15.78;100.00
62634;BME280;48704;50.534;6.442;2023-07-29T07:36:42;94918.59;;;15.89;100.00
62634;BME280;48704;50.534;6.442;2023-07-29T07:39:08;94914.34;;;16.01;100.00
62634;BME280;48704;50.534;6.442;2023-07-29T07:41:33;94915.72;;;16.14;100.00
62634;BME280;48704;50.534;6.442;2023-07-29T07:43:58;94917.47;;;16.17;100.00
62634;BME280;48704;50.534;6.442;2023-07-29T07:46:23;94930.94;;;16.24;100.00
62634;BME280;48704;50.534;6.442;2023-07-29T07:48:49;94927.66;;;16.20;100.00
62634;BME280;48704;50.534;6.442;2023-07-29T07:51:14;94925.91;;;16.17;100.00
62634;BME280;48704;50.534;6.442;2023-07-29T07:53:39;94931.78;;;16.19;100.00
62634;BME280;48704;50.534;6.442;2023-07-29T07:56:06;94934.88;;;16.15;100.00
62634;BME280;48704;50.534;6.442;2023-07-29T07:58:31;94935.78;;;16.42;100.00
62634;BME280;48704;50.534;6.442;2023-07-29T08:01:06;94935.94;;;16.50;100.00
62634;BME280;48704;50.534;6.442;2023-07-29T08:03:32;94948.31;;;16.41;100.00
62634;BME280;48704;50.534;6.442;2023-07-29T08:05:58;94942.31;;;16.50;100.00
62634;BME280;48704;50.534;6.442;2023-07-29T08:08:27;94937.88;;;15.98;100.00
62634;BME280;48704;50.534;6.442;2023-07-29T08:10:53;94941.19;;;16.21;100.00
62634;BME280;48704;50.534;6.442;2023-07-29T08:13:20;94946.03;;;16.39;100.00
62634;BME280;48704;50.534;6.442;2023-07-29T08:15:47;94945.91;;;16.32;100.00
62634;BME280;48704;50.534;6.442;2023-07-29T08:18:12;94936.69;;;16.50;100.00
62634;BME280;48704;50.534;6.442;2023-07-29T08:20:38;94952.97;;;16.57;100.00
62634;BME280;48704;50.534;6.442;2023-07-29T08:23:03;94947.66;;;16.54;100.00
62634;BME280;48704;50.534;6.442;2023-07-29T08:25:29;94954.94;;;16.44;100.00
62634;BME280;48704;50.534;6.442;2023-07-29T08:27:54;94956.63;;;16.52;100.00
62634;BME280;48704;50.534;6.442;2023-07-29T08:30:19;94949.56;;;16.64;100.00
62634;BME280;48704;50.534;6.442;2023-07-29T08:32:45;94951.75;;;16.71;100.00
62634;BME280;48704;50.534;6.442;2023-07-29T08:35:10;94945.22;;;16.63;100.00
62634;BME280;48704;50.534;6.442;2023-07-29T08:37:35;94950.84;;;16.63;100.00
62634;BME280;48704;50.534;6.442;2023-07-29T08:40:01;94950.38;;;16.59;100.00
62634;BME280;48704;50.534;6.442;2023-07-29T08:42:29;94956.75;;;16.79;100.00
62634;BME280;48704;50.534;6.442;2023-07-29T08:44:56;94955.53;;;16.93;100.00
62634;BME280;48704;50.534;6.442;2023-07-29T08:47:26;94956.91;;;17.18;100.00
62634;BME280;48704;50.534;6.442;2023-07-29T08:49:52;94955.06;;;17.08;100.00
62634;BME280;48704;50.534;6.442;2023-07-29T08:52:19;94947.38;;;17.21;100.00
62634;BME280;48704;50.534;6.442;2023-07-29T08:54:46;94949.34;;;17.26;100.00
62634;BME280;48704;50.534;6.442;2023-07-29T08:57:11;94945.84;;;17.07;100.00
62634;BME280;48704;50.534;6.442;2023-07-29T08:59:38;94948.97;;;17.03;100.00
62634;BME280;48704;50.534;6.442;2023-07-29T09:02:04;94951.13;;;16.79;100.00
62634;BME280;48704;50.534;6.442;2023-07-29T09:04:29;94946.94;;;16.85;100.00
62634;BME280;48704;50.534;6.442;2023-07-29T09:06:55;94954.47;;;16.96;100.00
62634;BME280;48704;50.534;6.442;2023-07-29T09:09:21;94945.50;;;17.11;100.00
62634;BME280;48704;50.534;6.442;2023-07-29T09:11:47;94952.00;;;17.37;100.00
62634;BME280;48704;50.534;6.442;2023-07-29T09:14:13;94948.63;;;17.52;100.00
62634;BME280;48704;50.534;6.442;2023-07-29T09:16:38;94947.22;;;17.32;100.00
62634;BME280;48704;50.534;6.442;2023-07-29T09:19:04;94955.03;;;17.53;100.00
62634;BME280;48704;50.534;6.442;2023-07-29T09:21:29;94962.94;;;17.54;100.00
62634;BME280;48704;50.534;6.442;2023-07-29T09:23:55;94953.56;;;17.65;100.00
62634;BME280;48704;50.534;6.442;2023-07-29T09:26:25;94951.41;;;17.71;100.00
62634;BME280;48704;50.534;6.442;2023-07-29T09:28:55;94961.06;;;17.76;100.00
62634;BME280;48704;50.534;6.442;2023-07-29T09:31:23;94957.06;;;18.11;100.00
62634;BME280;48704;50.534;6.442;2023-07-29T09:33:49;94963.13;;;18.15;100.00
62634;BME280;48704;50.534;6.442;2023-07-29T09:36:15;94968.97;;;17.90;100.00
62634;BME280;48704;50.534;6.442;2023-07-29T09:38:40;94968.25;;;17.58;100.00
62634;BME280;48704;50.534;6.442;2023-07-29T09:41:05;94974.56;;;17.64;100.00
62634;BME280;48704;50.534;6.442;2023-07-29T09:43:33;94975.91;;;17.89;100.00
62634;BME280;48704;50.534;6.442;2023-07-29T09:46:03;94976.34;;;17.93;100.00
62634;BME280;48704;50.534;6.442;2023-07-29T09:48:33;94970.41;;;17.52;100.00
62634;BME280;48704;50.534;6.442;2023-07-29T09:50:59;94982.38;;;17.26;100.00
62634;BME280;48704;50.534;6.442;2023-07-29T09:53:25;94985.66;;;16.98;100.00
62634;BME280;48704;50.534;6.442;2023-07-29T09:55:50;94990.06;;;16.75;100.00
62634;BME280;48704;50.534;6.442;2023-07-29T09:58:26;94995.81;;;16.45;100.00
62634;BME280;48704;50.534;6.442;2023-07-29T10:00:52;94999.94;;;16.00;100.00
62634;BME280;48704;50.534;6.442;2023-07-29T10:03:19;94994.88;;;15.75;100.00
62634;BME280;48704;50.534;6.442;2023-07-29T10:05:45;94995.06;;;15.58;100.00
62634;BME280;48704;50.534;6.442;2023-07-29T10:08:12;95002.25;;;15.48;100.00
62634;BME280;48704;50.534;6.442;2023-07-29T10:10:41;95003.78;;;15.49;100.00
62634;BME280;48704;50.534;6.442;2023-07-29T10:13:07;95003.53;;;15.47;100.00
62634;BME280;48704;50.534;6.442;2023-07-29T10:15:33;95003.03;;;15.48;100.00
62634;BME280;48704;50.534;6.442;2023-07-29T10:17:59;95003.22;;;15.56;100.00
62634;BME280;48704;50.534;6.442;2023-07-29T10:20:24;95002.63;;;15.63;100.00
62634;BME280;48704;50.534;6.442;2023-07-29T10:22:50;95006.63;;;15.73;100.00
62634;BME280;48704;50.534;6.442;2023-07-29T10:25:18;95010.31;;;15.87;100.00
62634;BME280;48704;50.534;6.442;2023-07-29T10:27:55;95007.31;;;16.03;100.00
62634;BME280;48704;50.534;6.442;2023-07-29T10:30:21;95006.47;;;15.90;100.00
62634;BME280;48704;50.534;6.442;2023-07-29T10:32:48;95013.84;;;15.93;100.00
62634;BME280;48704;50.534;6.442;2023-07-29T10:35:14;95012.13;;;15.84;100.00
62634;BME280;48704;50.534;6.442;2023-07-29T10:37:41;95010.63;;;15.83;100.00
62634;BME280;48704;50.534;6.442;2023-07-29T10:40:08;95006.56;;;15.79;100.00
62634;BME280;48704;50.534;6.442;2023-07-29T10:42:35;95007.47;;;15.92;100.00
62634;BME280;48704;50.534;6.442;2023-07-29T10:45:17;95000.63;;;16.07;100.00
62634;BME280;48704;50.534;6.442;2023-07-29T10:47:42;95000.84;;;16.33;100.00
62634;BME280;48704;50.534;6.442;2023-07-29T10:50:19;94996.00;;;16.52;100.00
62634;BME280;48704;50.534;6.442;2023-07-29T10:52:49;94997.19;;;16.38;100.00
62634;BME280;48704;50.534;6.442;2023-07-29T10:55:35;94989.50;;;16.20;100.00
62634;BME280;48704;50.534;6.442;2023-07-29T11:00:32;94993.13;;;16.77;100.00
62634;BME280;48704;50.534;6.442;2023-07-29T11:03:03;94988.38;;;17.35;100.00
62634;BME280;48704;50.534;6.442;2023-07-29T11:08:17;94973.16;;;18.63;100.00
62634;BME280;48704;50.534;6.442;2023-07-29T11:11:02;94970.34;;;19.18;100.00
62634;BME280;48704;50.534;6.442;2023-07-29T11:13:28;94969.59;;;19.17;100.00
62634;BME280;48704;50.534;6.442;2023-07-29T11:15:54;94970.44;;;19.67;100.00
62634;BME280;48704;50.534;6.442;2023-07-29T11:18:21;94967.09;;;19.76;100.00
62634;BME280;48704;50.534;6.442;2023-07-29T11:20:46;94969.56;;;20.00;100.00
62634;BME280;48704;50.534;6.442;2023-07-29T11:23:13;94961.31;;;20.46;100.00
62634;BME280;48704;50.534;6.442;2023-07-29T11:25:38;94971.75;;;20.59;100.00
62634;BME280;48704;50.534;6.442;2023-07-29T11:28:04;94968.63;;;19.77;100.00
62634;BME280;48704;50.534;6.442;2023-07-29T11:30:29;94963.38;;;20.38;100.00
62634;BME280;48704;50.534;6.442;2023-07-29T11:32:56;94967.63;;;20.60;100.00
62634;BME280;48704;50.534;6.442;2023-07-29T11:35:22;94959.00;;;20.81;100.00
62634;BME280;48704;50.534;6.442;2023-07-29T11:37:49;94965.97;;;21.54;100.00
62634;BME280;48704;50.534;6.442;2023-07-29T11:40:19;94973.63;;;20.56;100.00
62634;BME280;48704;50.534;6.442;2023-07-29T11:42:46;94963.97;;;20.95;100.00
62634;BME280;48704;50.534;6.442;2023-07-29T11:45:12;94963.91;;;21.47;100.00
62634;BME280;48704;50.534;6.442;2023-07-29T11:47:37;94959.16;;;21.72;100.00
62634;BME280;48704;50.534;6.442;2023-07-29T11:50:13;94955.44;;;20.88;100.00
62634;BME280;48704;50.534;6.442;2023-07-29T11:52:43;94937.41;;;20.55;100.00
62634;BME280;48704;50.534;6.442;2023-07-29T11:55:09;94945.44;;;20.79;100.00
62634;BME280;48704;50.534;6.442;2023-07-29T11:57:36;94943.28;;;21.61;100.00
62634;BME280;48704;50.534;6.442;2023-07-29T12:00:03;94932.25;;;20.97;100.00
62634;BME280;48704;50.534;6.442;2023-07-29T12:02:29;94930.81;;;21.42;100.00
62634;BME280;48704;50.534;6.442;2023-07-29T12:04:57;94926.38;;;20.87;100.00
62634;BME280;48704;50.534;6.442;2023-07-29T12:07:22;94924.00;;;21.90;100.00
62634;BME280;48704;50.534;6.442;2023-07-29T12:09:49;94927.59;;;21.83;100.00
62634;BME280;48704;50.534;6.442;2023-07-29T12:12:15;94918.09;;;21.96;100.00
62634;BME280;48704;50.534;6.442;2023-07-29T12:14:44;94914.41;;;22.41;100.00
62634;BME280;48704;50.534;6.442;2023-07-29T12:17:10;94918.66;;;22.25;100.00
62634;BME280;48704;50.534;6.442;2023-07-29T12:19:36;94924.00;;;21.60;100.00
62634;BME280;48704;50.534;6.442;2023-07-29T12:22:03;94931.59;;;21.50;100.00
62634;BME280;48704;50.534;6.442;2023-07-29T12:24:30;94924.50;;;22.75;100.00
62634;BME280;48704;50.534;6.442;2023-07-29T12:26:56;94916.03;;;22.12;100.00
62634;BME280;48704;50.534;6.442;2023-07-29T12:29:21;94916.78;;;21.97;100.00
62634;BME280;48704;50.534;6.442;2023-07-29T12:31:47;94913.41;;;21.83;100.00
62634;BME280;48704;50.534;6.442;2023-07-29T12:34:20;94921.69;;;21.20;100.00
62634;BME280;48704;50.534;6.442;2023-07-29T12:36:50;94917.41;;;20.60;100.00
62634;BME280;48704;50.534;6.442;2023-07-29T12:39:40;94924.41;;;19.87;100.00
62634;BME280;48704;50.534;6.442;2023-07-29T12:42:08;94918.00;;;19.58;100.00
62634;BME280;48704;50.534;6.442;2023-07-29T12:44:35;94924.41;;;19.17;100.00
62634;BME280;48704;50.534;6.442;2023-07-29T12:47:02;94915.91;;;18.96;100.00
62634;BME280;48704;50.534;6.442;2023-07-29T12:49:28;94927.06;;;18.81;100.00
62634;BME280;48704;50.534;6.442;2023-07-29T12:51:55;94926.06;;;19.83;100.00
62634;BME280;48704;50.534;6.442;2023-07-29T12:54:20;94927.38;;;21.13;100.00